Time;durP1;ratioP1;P1;durP2;ratioP2;P2;SDS_P1;SDS_P2;PMS_P1;PMS_P2;Temp;Humidity;BMP_temperature;BMP_pressure;BME280_temperature;BME280_humidity;BME280_pressure;Samples;Min_cycle;Max_cycle;Signal;HPM_P1;HPM_P2
2023/09/16 00:01:33;;;;;;;5.75;3.45;;;14.10;99.90;;;;;;5032770;28;20188;-84
2023/09/16 00:03:59;;;;;;;5.85;3.40;;;14.20;99.90;;;;;;5025207;28;20522;-84
2023/09/16 00:06:24;;;;;;;5.00;3.13;;;14.10;99.90;;;;;;5011300;28;20187;-85
2023/09/16 00:08:50;;;;;;;8.23;3.80;;;14.20;99.90;;;;;;5010652;28;20250;-84
2023/09/16 00:11:16;;;;;;;7.38;3.45;;;14.10;99.90;;;;;;5010110;28;20224;-85
2023/09/16 00:13:43;;;;;;;6.72;3.40;;;14.10;99.90;;;;;;5013744;28;20214;-84
2023/09/16 00:16:12;;;;;;;6.65;3.88;;;14.10;99.90;;;;;;5026411;28;20187;-84
2023/09/16 00:18:38;;;;;;;5.75;3.13;;;14.10;99.90;;;;;;5030746;28;20182;-84
2023/09/16 00:21:04;;;;;;;8.35;3.40;;;14.10;99.90;;;;;;5032585;28;20190;-85
2023/09/16 00:23:31;;;;;;;5.68;3.60;;;14.10;99.90;;;;;;5032401;28;20251;-84
2023/09/16 00:25:58;;;;;;;5.57;3.33;;;14.00;99.90;;;;;;5033823;28;20193;-84
2023/09/16 00:28:27;;;;;;;6.00;3.72;;;14.00;99.90;;;;;;5033498;28;20229;-84
2023/09/16 00:30:52;;;;;;;4.03;3.42;;;14.00;99.90;;;;;;5009914;28;20174;-83
2023/09/16 00:33:18;;;;;;;6.20;3.30;;;14.00;99.90;;;;;;5033829;28;20651;-85
2023/09/16 00:35:44;;;;;;;9.10;4.10;;;14.00;99.90;;;;;;5028370;28;20215;-84
2023/09/16 00:38:10;;;;;;;5.70;3.60;;;14.00;99.90;;;;;;5022688;28;20202;-83
2023/09/16 00:40:37;;;;;;;5.63;3.95;;;14.00;99.90;;;;;;5032316;28;20186;-84
2023/09/16 00:43:03;;;;;;;4.80;3.20;;;14.00;99.90;;;;;;5032364;28;20194;-83
2023/09/16 00:45:29;;;;;;;6.00;3.17;;;14.00;99.90;;;;;;5033315;28;20183;-84
2023/09/16 00:47:54;;;;;;;7.38;3.47;;;14.00;99.90;;;;;;5033466;28;20590;-83
2023/09/16 00:50:20;;;;;;;8.10;3.22;;;13.90;99.90;;;;;;5032353;28;20273;-84
2023/09/16 00:52:56;;;;;;;4.60;3.60;;;13.90;99.90;;;;;;5033316;28;20194;-84
2023/09/16 00:55:23;;;;;;;4.28;3.40;;;13.90;99.90;;;;;;5016895;28;20249;-84
2023/09/16 00:57:52;;;;;;;5.55;3.13;;;13.90;99.90;;;;;;5033182;28;20254;-84
2023/09/16 01:00:18;;;;;;;9.75;4.03;;;13.90;99.90;;;;;;5031969;28;20221;-84
2023/09/16 01:02:45;;;;;;;4.53;3.00;;;13.80;99.90;;;;;;5033616;28;20210;-84
2023/09/16 01:05:17;;;;;;;4.35;3.53;;;13.90;99.90;;;;;;5026365;28;20186;-83
2023/09/16 01:07:45;;;;;;;5.20;3.60;;;13.80;99.90;;;;;;5031719;28;20245;-84
2023/09/16 01:10:13;;;;;;;8.10;3.13;;;13.80;99.90;;;;;;5034110;28;20532;-84
2023/09/16 01:12:41;;;;;;;4.65;3.63;;;13.80;99.90;;;;;;5031542;28;20194;-84
2023/09/16 01:15:09;;;;;;;7.05;3.47;;;13.70;99.90;;;;;;5023601;28;20214;-84
2023/09/16 01:17:49;;;;;;;6.13;3.70;;;13.70;99.90;;;;;;5036141;28;20673;-83
2023/09/16 01:20:16;;;;;;;7.00;3.85;;;13.60;99.90;;;;;;5036877;28;20531;-84
2023/09/16 01:22:46;;;;;;;4.43;3.30;;;13.60;99.90;;;;;;5035369;28;20592;-84
2023/09/16 01:25:14;;;;;;;9.48;3.72;;;13.50;99.90;;;;;;5036518;28;20179;-84
2023/09/16 01:27:39;;;;;;;5.32;3.60;;;13.50;99.90;;;;;;5036295;28;20194;-84
2023/09/16 01:30:06;;;;;;;7.28;3.80;;;13.50;99.90;;;;;;5028195;28;20235;-83
2023/09/16 01:32:40;;;;;;;4.47;3.38;;;13.50;99.90;;;;;;5020211;28;20176;-84
2023/09/16 01:37:45;;;;;;;5.18;3.50;;;13.50;99.90;;;;;;5144556;22;20691;-85
2023/09/16 01:40:11;;;;;;;5.43;3.38;;;13.50;99.90;;;;;;5037042;28;20209;-86
2023/09/16 01:42:38;;;;;;;6.30;3.60;;;13.60;99.90;;;;;;5037645;28;20201;-86
2023/09/16 01:45:05;;;;;;;8.45;3.67;;;13.60;99.90;;;;;;5036459;28;20193;-86
2023/09/16 01:47:32;;;;;;;5.95;3.40;;;13.60;99.90;;;;;;5037662;28;20179;-87
2023/09/16 01:49:58;;;;;;;4.85;3.38;;;13.50;99.90;;;;;;5036394;28;20193;-85
2023/09/16 01:52:23;;;;;;;3.80;3.40;;;13.50;99.90;;;;;;5036117;28;20183;-86
2023/09/16 01:54:49;;;;;;;4.95;4.00;;;13.60;99.90;;;;;;5036293;28;20277;-86
2023/09/16 01:57:16;;;;;;;6.22;3.63;;;13.50;99.90;;;;;;5036306;28;20526;-85
2023/09/16 01:59:41;;;;;;;7.28;4.03;;;13.50;99.90;;;;;;5036626;28;20187;-86
2023/09/16 02:02:08;;;;;;;4.50;3.42;;;13.50;99.90;;;;;;5036728;28;20285;-85
2023/09/16 02:04:33;;;;;;;4.65;3.70;;;13.50;99.90;;;;;;5035903;28;20617;-86
2023/09/16 02:06:59;;;;;;;9.77;4.20;;;13.50;99.90;;;;;;5034973;28;20198;-85
2023/09/16 02:09:25;;;;;;;6.43;3.80;;;13.50;99.90;;;;;;5035994;28;20182;-85
2023/09/16 02:11:51;;;;;;;6.63;3.60;;;13.50;99.90;;;;;;5020524;28;20196;-87
2023/09/16 02:14:19;;;;;;;7.35;3.35;;;13.50;99.90;;;;;;5030594;28;20210;-86
2023/09/16 02:16:45;;;;;;;8.73;4.00;;;13.50;99.90;;;;;;5018283;28;20669;-85
2023/09/16 02:19:13;;;;;;;4.68;3.90;;;13.50;99.90;;;;;;5036708;28;20254;-86
2023/09/16 02:21:39;;;;;;;4.22;3.42;;;13.50;99.90;;;;;;5036116;28;20208;-86
2023/09/16 02:24:05;;;;;;;6.93;3.70;;;13.50;99.90;;;;;;5037110;28;20178;-86
2023/09/16 02:26:30;;;;;;;6.60;3.83;;;13.50;99.90;;;;;;5035729;28;20218;-86
2023/09/16 02:28:56;;;;;;;7.43;3.60;;;13.50;99.90;;;;;;5024013;28;20222;-85
2023/09/16 02:31:26;;;;;;;4.88;3.53;;;13.40;99.90;;;;;;5031773;28;20236;-86
2023/09/16 02:33:58;;;;;;;6.45;3.72;;;13.40;99.90;;;;;;5035275;28;20206;-86
2023/09/16 02:36:26;;;;;;;5.70;3.67;;;13.30;99.90;;;;;;5034660;28;20241;-86
2023/09/16 02:38:56;;;;;;;6.43;3.80;;;13.40;99.90;;;;;;5019389;28;20182;-85
2023/09/16 02:41:22;;;;;;;7.32;3.78;;;13.30;99.90;;;;;;5035427;28;20190;-86
2023/09/16 02:43:48;;;;;;;5.32;3.85;;;13.30;99.90;;;;;;5034933;28;20193;-86
2023/09/16 02:46:14;;;;;;;11.50;3.63;;;13.30;99.90;;;;;;5035128;28;20617;-86
2023/09/16 02:48:40;;;;;;;5.97;4.00;;;13.20;99.90;;;;;;5024212;28;20278;-86
2023/09/16 02:51:09;;;;;;;6.18;3.90;;;13.20;99.90;;;;;;5012343;28;20508;-86
2023/09/16 02:53:36;;;;;;;7.70;3.90;;;13.10;99.90;;;;;;5018034;28;20187;-86
2023/09/16 02:56:02;;;;;;;5.38;4.10;;;13.20;99.90;;;;;;5034570;28;20213;-86
2023/09/16 02:58:30;;;;;;;5.88;3.90;;;13.20;99.90;;;;;;5034456;28;20269;-87
2023/09/16 03:00:56;;;;;;;4.88;4.00;;;13.10;99.90;;;;;;5027099;28;20186;-86
2023/09/16 03:03:21;;;;;;;6.38;4.13;;;13.10;99.90;;;;;;5034680;28;20522;-86
2023/09/16 03:05:47;;;;;;;5.93;3.75;;;13.10;99.90;;;;;;5034389;28;20616;-86
2023/09/16 03:08:14;;;;;;;5.57;4.05;;;13.10;99.90;;;;;;5019458;28;20237;-86
2023/09/16 03:10:40;;;;;;;5.88;3.95;;;13.10;99.90;;;;;;5014750;28;20275;-86
2023/09/16 03:13:06;;;;;;;4.75;4.03;;;13.10;99.90;;;;;;5016001;28;20219;-86
2023/09/16 03:15:35;;;;;;;8.00;4.00;;;13.10;99.90;;;;;;5014566;28;20672;-86
2023/09/16 03:18:06;;;;;;;5.50;4.28;;;13.10;99.90;;;;;;5014648;28;20229;-87
2023/09/16 03:20:32;;;;;;;4.93;3.65;;;13.10;99.90;;;;;;5023717;28;20633;-86
2023/09/16 03:22:58;;;;;;;5.13;3.90;;;13.00;99.90;;;;;;5034703;28;20193;-86
2023/09/16 03:25:23;;;;;;;5.35;4.20;;;12.90;99.90;;;;;;5034485;28;20198;-86
2023/09/16 03:27:51;;;;;;;5.10;4.47;;;12.80;99.90;;;;;;5031036;28;20190;-86
2023/09/16 03:30:17;;;;;;;5.55;4.20;;;12.80;99.90;;;;;;5014746;28;20191;-86
2023/09/16 03:32:44;;;;;;;4.85;4.15;;;12.70;99.90;;;;;;5032612;28;20600;-86
2023/09/16 03:35:10;;;;;;;7.15;4.20;;;12.80;99.90;;;;;;5034226;28;20230;-86
2023/09/16 03:37:35;;;;;;;7.38;4.30;;;12.80;99.90;;;;;;5032496;28;20234;-86
2023/09/16 03:40:04;;;;;;;5.90;4.45;;;12.80;99.90;;;;;;5017506;28;20194;-87
2023/09/16 03:42:29;;;;;;;6.45;4.30;;;12.80;99.90;;;;;;5008026;28;20187;-86
2023/09/16 03:44:55;;;;;;;6.45;4.13;;;12.80;99.90;;;;;;5017567;28;20241;-87
2023/09/16 03:47:21;;;;;;;6.03;4.57;;;12.70;99.90;;;;;;5024720;28;20273;-86
2023/09/16 03:49:48;;;;;;;7.22;4.55;;;12.70;99.90;;;;;;5034926;28;20198;-86
2023/09/16 03:52:14;;;;;;;7.75;4.35;;;12.70;99.90;;;;;;5015919;28;20187;-87
2023/09/16 03:54:39;;;;;;;7.72;4.55;;;12.80;99.90;;;;;;5049210;28;20233;-86
2023/09/16 03:57:05;;;;;;;7.78;4.88;;;12.80;99.90;;;;;;5028719;28;20191;-86
2023/09/16 03:59:37;;;;;;;6.15;4.80;;;12.70;99.90;;;;;;5031084;28;20224;-86
2023/09/16 04:02:03;;;;;;;6.85;4.45;;;12.70;99.90;;;;;;5033980;28;20272;-86
2023/09/16 04:04:28;;;;;;;6.65;4.40;;;12.70;99.90;;;;;;5033523;28;20209;-86
2023/09/16 04:06:54;;;;;;;8.85;5.40;;;12.60;99.90;;;;;;5033346;28;20194;-85
2023/09/16 04:09:20;;;;;;;6.60;4.70;;;12.70;99.90;;;;;;5018433;28;20182;-88
2023/09/16 04:11:46;;;;;;;4.80;4.22;;;12.70;99.90;;;;;;5020384;28;20190;-85
2023/09/16 04:14:11;;;;;;;8.18;5.05;;;12.60;99.90;;;;;;5023144;28;20211;-86
2023/09/16 04:16:39;;;;;;;6.55;4.80;;;12.70;99.90;;;;;;5014200;28;20175;-86
2023/09/16 04:19:05;;;;;;;14.35;5.15;;;12.70;99.90;;;;;;5015009;28;20637;-86
2023/09/16 04:21:31;;;;;;;6.03;5.05;;;12.70;99.90;;;;;;5014609;28;20184;-87
2023/09/16 04:23:57;;;;;;;7.40;5.30;;;12.70;99.90;;;;;;5007604;28;20228;-87
2023/09/16 04:26:23;;;;;;;6.43;4.80;;;12.70;99.90;;;;;;5013891;28;20175;-86
2023/09/16 04:28:48;;;;;;;9.73;5.25;;;12.60;99.90;;;;;;5004768;28;20613;-86
2023/09/16 04:31:14;;;;;;;6.45;5.68;;;12.60;99.90;;;;;;5006926;28;20184;-86
2023/09/16 04:33:40;;;;;;;7.38;5.20;;;12.60;99.90;;;;;;5024549;28;20182;-86
2023/09/16 04:36:06;;;;;;;9.48;5.60;;;12.50;99.90;;;;;;5018680;28;20238;-88
2023/09/16 04:38:32;;;;;;;5.93;5.32;;;12.50;99.90;;;;;;5025576;28;20182;-87
2023/09/16 04:40:57;;;;;;;9.38;5.70;;;12.50;99.90;;;;;;5032572;28;20182;-88
2023/09/16 04:43:25;;;;;;;6.00;5.13;;;12.50;99.90;;;;;;5033989;28;20629;-86
2023/09/16 04:45:51;;;;;;;6.90;5.90;;;12.60;99.90;;;;;;5030287;28;20196;-87
2023/09/16 04:48:17;;;;;;;6.55;5.38;;;12.60;99.90;;;;;;5027649;28;20532;-86
2023/09/16 04:50:48;;;;;;;9.15;5.85;;;12.60;99.90;;;;;;5038338;28;20179;-88
2023/09/16 04:53:14;;;;;;;10.50;6.05;;;12.70;99.90;;;;;;5030013;28;20187;-86
2023/09/16 04:55:41;;;;;;;7.43;5.53;;;12.60;99.90;;;;;;5017307;28;20215;-86
2023/09/16 04:58:07;;;;;;;8.02;6.18;;;12.70;99.90;;;;;;5018013;28;20175;-88
2023/09/16 05:00:41;;;;;;;10.40;6.63;;;12.70;99.90;;;;;;5017212;28;20191;-87
2023/09/16 05:03:07;;;;;;;8.65;6.20;;;12.70;99.90;;;;;;5017161;28;20283;-87
2023/09/16 05:05:34;;;;;;;8.38;6.20;;;12.70;99.90;;;;;;5017100;28;20190;-88
2023/09/16 05:08:00;;;;;;;7.68;5.93;;;12.80;99.90;;;;;;5023478;28;20222;-87
2023/09/16 05:10:28;;;;;;;9.57;6.45;;;12.70;99.90;;;;;;5025155;28;20226;-88
2023/09/16 05:12:54;;;;;;;7.97;6.20;;;12.70;99.90;;;;;;5036771;28;20283;-87
2023/09/16 05:15:19;;;;;;;8.65;6.25;;;12.70;99.90;;;;;;5037609;28;20680;-87
2023/09/16 05:17:45;;;;;;;6.57;5.70;;;12.70;99.90;;;;;;5036471;28;20188;-87
2023/09/16 05:20:12;;;;;;;6.95;6.25;;;12.70;99.90;;;;;;5037700;28;20193;-88
2023/09/16 05:22:39;;;;;;;6.75;6.05;;;12.80;99.90;;;;;;5036574;28;20205;-85
2023/09/16 05:25:05;;;;;;;11.13;6.68;;;12.80;99.90;;;;;;5036848;28;20190;-86
2023/09/16 05:27:31;;;;;;;10.68;6.55;;;12.80;99.90;;;;;;5035703;28;20570;-86
2023/09/16 05:29:58;;;;;;;7.90;6.13;;;12.90;99.90;;;;;;5034713;28;20208;-85
2023/09/16 05:32:24;;;;;;;7.70;6.75;;;12.80;99.90;;;;;;5036455;28;20179;-86
2023/09/16 05:34:49;;;;;;;8.43;6.47;;;12.90;99.90;;;;;;5035987;28;20231;-87
2023/09/16 05:37:15;;;;;;;11.52;6.55;;;13.00;99.90;;;;;;5035800;28;20222;-87
2023/09/16 05:39:41;;;;;;;9.80;6.85;;;13.10;99.90;;;;;;5036308;28;20554;-88
2023/09/16 05:42:06;;;;;;;7.95;6.10;;;13.20;99.90;;;;;;5031991;28;20206;-87
2023/09/16 05:44:32;;;;;;;7.90;6.40;;;13.20;99.90;;;;;;5033423;28;20217;-87
2023/09/16 05:46:58;;;;;;;7.07;6.35;;;13.30;99.90;;;;;;5023082;28;20245;-87
2023/09/16 05:49:24;;;;;;;7.93;6.38;;;13.40;99.90;;;;;;5016119;28;20187;-86
2023/09/16 05:51:51;;;;;;;7.10;6.40;;;13.50;99.90;;;;;;5015990;28;20183;-86
2023/09/16 05:54:18;;;;;;;7.15;6.15;;;13.60;99.90;;;;;;5022923;28;20265;-87
2023/09/16 05:56:46;;;;;;;8.75;6.32;;;13.70;99.90;;;;;;5026423;28;20223;-86
2023/09/16 05:59:12;;;;;;;9.23;6.43;;;13.70;99.90;;;;;;5035410;28;20269;-87
2023/09/16 06:01:38;;;;;;;7.97;6.18;;;13.80;99.90;;;;;;5035681;28;20194;-87
2023/09/16 06:04:04;;;;;;;8.75;6.70;;;13.80;99.90;;;;;;5035699;28;20269;-87
2023/09/16 06:06:29;;;;;;;8.40;6.63;;;13.90;99.90;;;;;;5035382;28;20196;-85
2023/09/16 06:08:56;;;;;;;7.25;6.07;;;14.00;99.90;;;;;;5035592;28;20190;-86
2023/09/16 06:11:26;;;;;;;8.55;6.28;;;14.10;99.90;;;;;;5036471;28;20179;-85
2023/09/16 06:13:53;;;;;;;7.65;6.00;;;14.10;99.90;;;;;;5019390;28;20331;-87
2023/09/16 06:16:18;;;;;;;7.85;5.93;;;14.20;99.90;;;;;;5036771;28;20178;-86
2023/09/16 06:18:44;;;;;;;7.63;6.45;;;14.20;99.90;;;;;;5029234;28;20178;-86
2023/09/16 06:21:10;;;;;;;8.60;6.05;;;14.40;99.90;;;;;;5027385;28;20281;-87
2023/09/16 06:23:35;;;;;;;7.55;6.25;;;14.40;99.90;;;;;;5035088;28;20186;-88
2023/09/16 06:26:01;;;;;;;6.30;5.70;;;14.50;99.90;;;;;;5034429;28;20175;-87
2023/09/16 06:28:27;;;;;;;7.35;5.93;;;14.50;99.90;;;;;;5034816;28;20196;-87
2023/09/16 06:30:54;;;;;;;9.32;6.30;;;14.50;99.90;;;;;;5026163;28;20190;-87
2023/09/16 06:33:19;;;;;;;20.05;6.20;;;14.60;99.90;;;;;;5018932;28;20233;-87
2023/09/16 06:35:45;;;;;;;7.57;6.25;;;14.60;99.90;;;;;;5033431;28;21539;-88
2023/09/16 06:38:11;;;;;;;9.25;5.88;;;14.70;99.90;;;;;;5018689;28;20244;-87
2023/09/16 06:40:40;;;;;;;7.10;5.82;;;14.80;99.90;;;;;;5033416;28;20609;-86
2023/09/16 06:43:06;;;;;;;8.00;6.47;;;14.90;99.90;;;;;;5029023;28;20194;-87
2023/09/16 06:45:31;;;;;;;8.52;6.28;;;14.90;99.90;;;;;;5035094;28;20694;-88
2023/09/16 06:47:57;;;;;;;8.30;6.53;;;15.00;99.90;;;;;;5034783;28;20186;-88
2023/09/16 06:50:24;;;;;;;6.78;6.05;;;15.00;99.90;;;;;;5035171;28;20190;-88
2023/09/16 06:52:50;;;;;;;7.97;6.53;;;15.10;99.90;;;;;;5034563;28;20218;-88
2023/09/16 06:55:15;;;;;;;8.75;6.45;;;15.10;99.90;;;;;;5033267;28;20249;-87
2023/09/16 06:57:42;;;;;;;7.65;6.00;;;15.20;99.90;;;;;;5034342;28;20190;-86
2023/09/16 07:00:08;;;;;;;7.13;6.03;;;15.30;99.90;;;;;;5033511;28;20174;-88
2023/09/16 07:02:36;;;;;;;8.95;5.88;;;15.40;99.90;;;;;;5034573;28;20186;-87
2023/09/16 07:05:02;;;;;;;10.18;5.82;;;15.40;99.90;;;;;;5018081;28;20275;-86
2023/09/16 07:07:28;;;;;;;7.22;5.20;;;15.40;99.90;;;;;;5033395;28;20178;-86
2023/09/16 07:09:55;;;;;;;7.25;6.15;;;15.50;99.90;;;;;;5033984;28;20282;-88
2023/09/16 07:12:22;;;;;;;6.95;5.70;;;15.60;99.90;;;;;;5027383;28;20354;-88
2023/09/16 07:14:48;;;;;;;9.80;5.72;;;15.70;99.90;;;;;;5015934;28;20257;-87
2023/09/16 07:17:15;;;;;;;6.20;5.60;;;15.80;99.90;;;;;;5021113;28;20190;-86
2023/09/16 07:19:41;;;;;;;6.60;5.70;;;15.90;99.90;;;;;;5032805;28;20189;-89
2023/09/16 07:22:06;;;;;;;8.93;5.72;;;16.00;99.90;;;;;;5024076;28;20183;-87
2023/09/16 07:24:32;;;;;;;5.93;4.80;;;16.10;99.90;;;;;;5032439;28;20178;-86
2023/09/16 07:26:58;;;;;;;7.63;5.82;;;16.20;99.90;;;;;;5034141;28;20186;-88
2023/09/16 07:29:24;;;;;;;8.05;5.80;;;16.30;99.90;;;;;;5034131;28;20277;-87
2023/09/16 07:31:50;;;;;;;6.97;5.10;;;16.40;99.90;;;;;;5032523;28;20187;-86
2023/09/16 07:34:16;;;;;;;8.35;5.20;;;16.50;99.90;;;;;;5025773;28;20214;-87
2023/09/16 07:36:42;;;;;;;6.93;4.70;;;16.60;99.90;;;;;;5030026;28;20268;-89
2023/09/16 07:39:09;;;;;;;6.43;5.20;;;16.70;99.90;;;;;;5014533;28;20219;-87
2023/09/16 07:41:36;;;;;;;6.65;5.43;;;16.80;99.90;;;;;;5017455;28;20178;-86
2023/09/16 07:44:01;;;;;;;6.20;4.85;;;16.90;99.90;;;;;;5034152;28;20300;-86
2023/09/16 07:59:55;;;;;;;9.00;4.63;;;17.30;99.90;;;;;;5008596;28;20210;-85
2023/09/16 08:02:21;;;;;;;8.43;4.50;;;17.40;99.90;;;;;;5033749;28;20183;-86
2023/09/16 08:04:47;;;;;;;6.82;4.32;;;17.40;99.90;;;;;;5022056;28;20194;-85
2023/09/16 08:07:14;;;;;;;8.63;5.20;;;17.50;99.90;;;;;;5026535;28;20190;-86
2023/09/16 08:09:39;;;;;;;6.57;4.47;;;17.60;99.90;;;;;;5023427;28;20193;-86
2023/09/16 08:12:05;;;;;;;7.60;4.93;;;17.70;99.90;;;;;;5032188;28;20175;-86
2023/09/16 08:14:31;;;;;;;7.53;4.78;;;17.70;99.90;;;;;;5008253;28;20219;-85
2023/09/16 08:16:58;;;;;;;10.98;5.22;;;17.80;99.90;;;;;;5015062;28;20257;-86
2023/09/16 08:19:24;;;;;;;7.40;4.47;;;17.90;99.90;;;;;;5023088;28;20245;-87
2023/09/16 08:21:49;;;;;;;6.53;4.65;;;17.90;99.90;;;;;;5017818;28;20575;-87
2023/09/16 08:24:18;;;;;;;7.13;4.95;;;18.00;99.90;;;;;;5022725;28;20187;-86
2023/09/16 08:26:44;;;;;;;7.38;4.93;;;18.10;99.90;;;;;;5017343;28;20179;-85
2023/09/16 08:29:10;;;;;;;6.25;4.88;;;18.10;99.90;;;;;;5018186;28;20190;-86
2023/09/16 08:31:35;;;;;;;6.28;4.78;;;18.20;99.90;;;;;;5025560;28;20182;-86
2023/09/16 08:34:04;;;;;;;7.07;4.60;;;18.30;99.90;;;;;;5019257;28;20187;-87
2023/09/16 08:36:29;;;;;;;6.60;4.47;;;18.40;99.90;;;;;;5033959;28;20280;-86
2023/09/16 08:38:55;;;;;;;10.07;4.57;;;18.40;99.90;;;;;;5046773;28;20200;-87
2023/09/16 08:41:27;;;;;;;5.63;4.43;;;18.60;99.90;;;;;;5013451;28;20186;-87
2023/09/16 08:43:58;;;;;;;6.97;4.68;;;18.70;99.90;;;;;;5009431;28;20298;-87
2023/09/16 08:46:26;;;;;;;6.40;4.07;;;18.70;99.90;;;;;;5017297;28;20191;-86
2023/09/16 08:48:55;;;;;;;5.50;4.25;;;18.80;99.90;;;;;;5029275;28;20183;-86
2023/09/16 08:51:21;;;;;;;4.88;4.10;;;18.90;99.90;;;;;;5029046;28;20194;-87
2023/09/16 08:53:48;;;;;;;5.90;4.25;;;19.00;99.90;;;;;;5029222;28;20186;-84
2023/09/16 08:56:14;;;;;;;6.20;4.07;;;19.00;99.90;;;;;;5036803;28;20241;-85
2023/09/16 08:58:41;;;;;;;5.03;4.25;;;19.00;99.90;;;;;;5032277;28;20556;-85
2023/09/16 09:01:07;;;;;;;4.55;3.33;;;19.20;99.90;;;;;;5018183;28;20183;-87
2023/09/16 09:03:35;;;;;;;6.32;3.88;;;19.20;99.90;;;;;;5017434;28;20628;-87
2023/09/16 09:06:03;;;;;;;6.18;3.90;;;19.40;99.90;;;;;;5023792;28;20207;-87
2023/09/16 09:08:31;;;;;;;9.00;4.22;;;19.40;99.90;;;;;;5022047;28;20198;-86
2023/09/16 09:10:57;;;;;;;5.05;3.92;;;19.40;99.90;;;;;;5028849;28;20183;-87
2023/09/16 09:13:30;;;;;;;7.53;3.80;;;19.50;99.90;;;;;;5017244;28;20182;-88
2023/09/16 09:16:00;;;;;;;6.00;3.72;;;19.50;99.90;;;;;;5037367;28;20225;-88
2023/09/16 09:18:28;;;;;;;7.20;3.80;;;19.60;99.90;;;;;;5053101;28;20190;-90
2023/09/16 09:20:54;;;;;;;6.13;3.50;;;19.70;99.90;;;;;;5053279;28;20186;-87
2023/09/16 09:23:20;;;;;;;6.45;3.28;;;19.80;99.90;;;;;;5029274;28;20206;-86
2023/09/16 09:25:48;;;;;;;4.75;3.28;;;19.80;99.90;;;;;;5035929;28;20228;-88
2023/09/16 09:28:16;;;;;;;9.05;3.75;;;19.90;99.90;;;;;;5036334;28;20651;-88
2023/09/16 09:30:42;;;;;;;4.65;3.50;;;20.00;99.90;;;;;;5034913;28;20218;-89
2023/09/16 09:33:17;;;;;;;6.82;3.38;;;20.10;99.90;;;;;;5036527;28;20213;-87
2023/09/16 09:35:43;;;;;;;3.50;3.20;;;20.10;99.90;;;;;;5036020;28;20683;-88
2023/09/16 09:38:09;;;;;;;5.10;3.08;;;20.20;99.90;;;;;;5035969;28;20195;-88
2023/09/16 09:40:34;;;;;;;5.45;3.65;;;20.30;99.90;;;;;;5022807;28;20191;-87
2023/09/16 09:43:00;;;;;;;4.32;2.95;;;20.40;99.90;;;;;;5016376;28;20236;-84
2023/09/16 09:45:35;;;;;;;4.15;3.45;;;20.50;99.90;;;;;;5025492;28;20272;-86
2023/09/16 09:48:01;;;;;;;5.82;3.30;;;20.50;99.90;;;;;;5022311;28;20209;-86
2023/09/16 09:50:30;;;;;;;4.30;3.42;;;20.50;99.90;;;;;;5035937;28;20189;-86
2023/09/16 09:52:56;;;;;;;7.43;3.55;;;20.60;99.90;;;;;;5028474;28;20187;-88
2023/09/16 09:55:28;;;;;;;4.00;3.20;;;20.70;99.90;;;;;;5036017;28;20214;-88
2023/09/16 09:57:53;;;;;;;4.82;3.45;;;20.80;99.90;;;;;;5027794;28;20187;-88
2023/09/16 10:00:21;;;;;;;8.07;3.53;;;20.80;99.90;;;;;;5020265;28;20201;-87
2023/09/16 10:02:47;;;;;;;7.97;3.65;;;20.90;99.90;;;;;;5016219;28;20211;-88
2023/09/16 10:05:15;;;;;;;5.75;3.40;;;20.90;99.90;;;;;;5033983;28;20187;-89
2023/09/16 10:07:45;;;;;;;7.63;3.90;;;21.00;99.90;;;;;;5033882;28;20246;-88
2023/09/16 10:10:21;;;;;;;4.15;3.30;;;21.10;99.90;;;;;;5025209;28;20249;-90
2023/09/16 10:12:49;;;;;;;3.30;2.80;;;21.10;99.90;;;;;;5018670;28;20189;-88
2023/09/16 10:15:41;;;;;;;5.53;3.00;;;21.30;99.90;;;;;;5035492;28;20297;-87
2023/09/16 10:18:08;;;;;;;5.68;3.40;;;21.30;99.90;;;;;;5035396;28;20186;-88
2023/09/16 10:20:46;;;;;;;7.60;3.45;;;21.40;99.90;;;;;;5036000;28;20241;-87
2023/09/16 10:23:11;;;;;;;4.13;3.17;;;21.40;99.90;;;;;;5038001;28;20194;-86
2023/09/16 10:25:37;;;;;;;8.60;3.15;;;21.50;99.90;;;;;;5038853;28;20179;-88
2023/09/16 10:28:06;;;;;;;5.65;3.30;;;21.60;99.90;;;;;;5033482;28;20281;-87
2023/09/16 10:30:33;;;;;;;9.35;2.97;;;21.50;99.90;;;;;;5034321;28;20191;-90
2023/09/16 10:33:06;;;;;;;8.25;3.15;;;21.60;99.90;;;;;;5019168;28;20225;-88
2023/09/16 10:35:34;;;;;;;7.72;2.97;;;21.80;99.90;;;;;;5036711;28;20241;-88
2023/09/16 10:38:02;;;;;;;5.82;3.00;;;21.80;99.90;;;;;;5026510;28;20290;-88
2023/09/16 10:40:29;;;;;;;4.78;2.72;;;21.90;99.90;;;;;;5027647;28;20190;-86
2023/09/16 10:42:57;;;;;;;8.52;2.70;;;21.90;99.90;;;;;;5037233;28;20281;-87
2023/09/16 10:45:24;;;;;;;3.17;2.78;;;21.90;99.90;;;;;;5035376;28;20218;-89
2023/09/16 10:47:50;;;;;;;3.40;2.85;;;21.80;99.90;;;;;;5015004;28;20187;-89
2023/09/16 10:50:17;;;;;;;4.88;2.60;;;21.90;99.90;;;;;;5022139;28;20186;-86
2023/09/16 10:53:00;;;;;;;4.78;2.92;;;22.00;99.90;;;;;;5034888;28;20187;-87
2023/09/16 10:55:43;;;;;;;3.13;2.80;;;22.10;99.90;;;;;;5034684;28;20241;-87
2023/09/16 10:58:19;;;;;;;5.18;3.00;;;22.10;99.90;;;;;;5034682;28;20188;-87
2023/09/16 11:00:56;;;;;;;5.38;2.83;;;22.20;99.90;;;;;;5031976;28;20228;-89
2023/09/16 11:03:30;;;;;;;4.63;2.85;;;22.20;99.90;;;;;;5014952;28;20273;-88
2023/09/16 11:06:03;;;;;;;3.70;2.72;;;22.30;99.90;;;;;;5019016;28;20266;-86
2023/09/16 11:08:29;;;;;;;5.43;2.75;;;22.40;99.90;;;;;;5029555;28;20274;-88
2023/09/16 11:10:56;;;;;;;8.40;3.05;;;22.50;99.90;;;;;;5022758;28;20179;-87
2023/09/16 11:13:24;;;;;;;3.85;2.90;;;22.50;99.90;;;;;;5014845;28;20716;-87
2023/09/16 11:15:52;;;;;;;4.70;3.03;;;22.50;99.90;;;;;;5017480;28;20224;-88
2023/09/16 11:18:18;;;;;;;3.65;3.10;;;22.60;99.90;;;;;;5034265;28;20187;-88
2023/09/16 11:20:45;;;;;;;3.60;2.78;;;22.60;99.90;;;;;;5034407;28;20186;-86
2023/09/16 11:23:12;;;;;;;3.97;2.80;;;22.80;99.90;;;;;;5034160;28;20286;-89
2023/09/16 11:25:41;;;;;;;4.10;3.10;;;22.90;99.90;;;;;;5034446;28;20568;-91
2023/09/16 11:28:09;;;;;;;4.53;3.10;;;22.80;99.90;;;;;;5034351;28;20535;-88
2023/09/16 11:30:36;;;;;;;3.25;2.75;;;22.90;99.90;;;;;;5033259;28;20174;-90
2023/09/16 11:33:05;;;;;;;5.03;2.90;;;22.90;99.90;;;;;;5034549;28;20186;-87
2023/09/16 11:35:31;;;;;;;3.83;3.00;;;23.00;99.90;;;;;;5050395;28;20214;-89
2023/09/16 11:37:57;;;;;;;5.90;2.90;;;23.10;99.90;;;;;;5022459;28;20262;-88
2023/09/16 11:40:27;;;;;;;7.47;2.72;;;23.10;99.90;;;;;;5022106;28;20187;-89
2023/09/16 11:42:55;;;;;;;4.63;2.63;;;23.20;99.90;;;;;;5030623;28;20211;-86
2023/09/16 11:45:23;;;;;;;3.03;2.60;;;23.40;99.90;;;;;;5029730;28;20353;-88
2023/09/16 11:47:49;;;;;;;3.80;3.00;;;23.30;99.90;;;;;;5029254;28;20265;-91
2023/09/16 11:50:22;;;;;;;2.80;2.60;;;23.30;99.90;;;;;;5014546;28;20198;-90
2023/09/16 11:52:48;;;;;;;3.45;2.75;;;23.30;99.90;;;;;;5016544;28;20214;-91
2023/09/16 11:55:15;;;;;;;2.75;2.38;;;23.30;99.90;;;;;;5032333;28;20210;-89
2023/09/16 11:57:42;;;;;;;2.95;2.65;;;23.30;99.90;;;;;;5033558;28;20187;-86
2023/09/16 12:00:09;;;;;;;2.80;2.60;;;23.40;99.90;;;;;;5033016;28;20275;-91
2023/09/16 12:02:35;;;;;;;3.03;2.70;;;23.40;99.90;;;;;;5025050;28;20265;-89
2023/09/16 12:05:03;;;;;;;3.25;2.63;;;23.40;99.90;;;;;;5015788;28;20198;-88
2023/09/16 12:07:30;;;;;;;4.72;2.53;;;23.50;99.90;;;;;;5018854;28;20187;-88
2023/09/16 12:10:00;;;;;;;4.32;2.92;;;23.50;99.90;;;;;;5016065;28;20572;-89
2023/09/16 12:12:27;;;;;;;5.10;2.67;;;23.50;99.90;;;;;;5023138;28;20214;-89
2023/09/16 12:14:56;;;;;;;3.25;2.65;;;23.50;99.90;;;;;;5016393;28;20281;-90
2023/09/16 12:17:25;;;;;;;4.88;2.83;;;23.70;99.90;;;;;;5032572;28;20185;-91
2023/09/16 12:19:52;;;;;;;2.85;2.55;;;23.70;99.90;;;;;;5028148;28;20194;-91
2023/09/16 12:22:19;;;;;;;3.05;2.65;;;23.70;99.90;;;;;;5029884;28;20197;-86
2023/09/16 12:24:45;;;;;;;2.78;2.47;;;23.90;99.90;;;;;;5025300;28;20535;-91
2023/09/16 12:27:13;;;;;;;3.20;2.50;;;23.90;99.90;;;;;;5001545;28;20187;-90
2023/09/16 12:29:40;;;;;;;4.07;2.75;;;24.00;99.90;;;;;;5036433;28;20213;-88
2023/09/16 12:32:10;;;;;;;4.28;2.50;;;24.00;99.90;;;;;;5018376;28;20215;-90
2023/09/16 12:34:36;;;;;;;3.42;2.42;;;24.00;99.90;;;;;;5039424;28;20229;-90
2023/09/16 12:37:02;;;;;;;3.67;2.40;;;24.10;99.90;;;;;;5025505;28;20325;-91
2023/09/16 12:39:36;;;;;;;5.15;2.70;;;24.10;99.90;;;;;;5030638;28;20190;-89
2023/09/16 12:42:04;;;;;;;2.65;2.45;;;24.20;99.90;;;;;;5026547;28;20194;-89
2023/09/16 12:44:35;;;;;;;4.28;2.70;;;24.20;99.90;;;;;;5025516;28;20190;-89
2023/09/16 12:47:08;;;;;;;2.60;2.17;;;24.20;99.90;;;;;;5033153;28;20702;-88
2023/09/16 12:49:34;;;;;;;2.88;2.55;;;24.20;99.90;;;;;;5020501;28;20195;-90
2023/09/16 12:52:01;;;;;;;5.13;2.50;;;24.30;99.90;;;;;;5023769;28;20183;-90
2023/09/16 12:54:31;;;;;;;3.15;2.38;;;24.40;99.90;;;;;;5026514;28;20210;-87
2023/09/16 12:57:02;;;;;;;4.10;2.30;;;24.50;99.90;;;;;;5019205;28;20245;-87
2023/09/16 12:59:28;;;;;;;3.58;2.33;;;24.60;99.90;;;;;;5032066;28;20178;-91
2023/09/16 13:01:53;;;;;;;2.40;2.20;;;24.60;99.90;;;;;;5014499;28;20191;-88